sensor_id;sensor_type;location;lat;lon;timestamp;temperature;humidity
45066;DHT22;30830;53.704;10.004;2022-07-06T00:02:23;14.50;99.90
45066;DHT22;30830;53.704;10.004;2022-07-06T00:04:49;14.50;99.90
45066;DHT22;30830;53.704;10.004;2022-07-06T00:07:14;14.50;99.90
45066;DHT22;30830;53.704;10.004;2022-07-06T00:09:41;14.50;99.90
45066;DHT22;30830;53.704;10.004;2022-07-06T00:12:07;14.50;99.90
45066;DHT22;30830;53.704;10.004;2022-07-06T00:14:33;14.50;99.90
45066;DHT22;30830;53.704;10.004;2022-07-06T00:16:58;14.40;99.90
45066;DHT22;30830;53.704;10.004;2022-07-06T00:19:24;14.50;99.90
45066;DHT22;30830;53.704;10.004;2022-07-06T00:21:49;14.40;99.90
45066;DHT22;30830;53.704;10.004;2022-07-06T00:24:15;14.40;99.90
45066;DHT22;30830;53.704;10.004;2022-07-06T00:26:44;14.40;99.90
45066;DHT22;30830;53.704;10.004;2022-07-06T00:29:09;14.40;99.90
45066;DHT22;30830;53.704;10.004;2022-07-06T00:31:35;14.40;99.90
45066;DHT22;30830;53.704;10.004;2022-07-06T00:34:01;14.40;99.90
45066;DHT22;30830;53.704;10.004;2022-07-06T00:36:26;14.40;99.90
45066;DHT22;30830;53.704;10.004;2022-07-06T00:38:52;14.40;99.90
45066;DHT22;30830;53.704;10.004;2022-07-06T00:41:18;14.40;99.90
45066;DHT22;30830;53.704;10.004;2022-07-06T00:43:48;14.40;99.90
45066;DHT22;30830;53.704;10.004;2022-07-06T00:46:15;14.40;99.90
45066;DHT22;30830;53.704;10.004;2022-07-06T00:48:40;14.40;99.90
45066;DHT22;30830;53.704;10.004;2022-07-06T00:51:06;14.30;99.90
45066;DHT22;30830;53.704;10.004;2022-07-06T00:53:32;14.30;99.90
45066;DHT22;30830;53.704;10.004;2022-07-06T00:55:57;14.30;99.90
45066;DHT22;30830;53.704;10.004;2022-07-06T00:58:23;14.40;99.90
45066;DHT22;30830;53.704;10.004;2022-07-06T01:00:50;14.30;99.90
45066;DHT22;30830;53.704;10.004;2022-07-06T01:03:15;14.30;99.90
45066;DHT22;30830;53.704;10.004;2022-07-06T01:05:41;14.30;99.90
45066;DHT22;30830;53.704;10.004;2022-07-06T01:08:07;14.30;99.90
45066;DHT22;30830;53.704;10.004;2022-07-06T01:10:32;14.30;99.90
45066;DHT22;30830;53.704;10.004;2022-07-06T01:12:58;14.30;99.90
45066;DHT22;30830;53.704;10.004;2022-07-06T01:15:25;14.20;99.90
45066;DHT22;30830;53.704;10.004;2022-07-06T01:17:51;14.20;99.90
45066;DHT22;30830;53.704;10.004;2022-07-06T01:20:25;14.20;99.90
45066;DHT22;30830;53.704;10.004;2022-07-06T01:22:53;14.20;99.90
45066;DHT22;30830;53.704;10.004;2022-07-06T01:25:20;14.10;99.90
45066;DHT22;30830;53.704;10.004;2022-07-06T01:27:46;14.20;99.90
45066;DHT22;30830;53.704;10.004;2022-07-06T01:30:14;14.10;99.90
45066;DHT22;30830;53.704;10.004;2022-07-06T01:32:41;14.00;99.90
45066;DHT22;30830;53.704;10.004;2022-07-06T01:35:09;14.00;99.90
45066;DHT22;30830;53.704;10.004;2022-07-06T01:37:35;14.00;99.90
45066;DHT22;30830;53.704;10.004;2022-07-06T01:40:03;14.10;99.90
45066;DHT22;30830;53.704;10.004;2022-07-06T01:42:29;14.10;99.90
45066;DHT22;30830;53.704;10.004;2022-07-06T01:44:55;14.10;99.90
45066;DHT22;30830;53.704;10.004;2022-07-06T01:47:21;14.10;99.90
45066;DHT22;30830;53.704;10.004;2022-07-06T01:49:47;14.10;99.90
45066;DHT22;30830;53.704;10.004;2022-07-06T01:52:13;14.10;99.90
45066;DHT22;30830;53.704;10.004;2022-07-06T01:54:38;14.00;99.90
45066;DHT22;30830;53.704;10.004;2022-07-06T01:57:04;14.10;99.90
45066;DHT22;30830;53.704;10.004;2022-07-06T01:59:30;14.10;99.90
45066;DHT22;30830;53.704;10.004;2022-07-06T02:01:55;13.90;99.90
45066;DHT22;30830;53.704;10.004;2022-07-06T02:04:21;13.80;99.90
45066;DHT22;30830;53.704;10.004;2022-07-06T02:06:47;13.80;99.90
45066;DHT22;30830;53.704;10.004;2022-07-06T02:09:12;13.70;99.90
45066;DHT22;30830;53.704;10.004;2022-07-06T02:11:38;13.70;99.90
45066;DHT22;30830;53.704;10.004;2022-07-06T02:14:03;13.60;99.90
45066;DHT22;30830;53.704;10.004;2022-07-06T02:16:29;13.50;99.90
45066;DHT22;30830;53.704;10.004;2022-07-06T02:18:55;13.50;99.90
45066;DHT22;30830;53.704;10.004;2022-07-06T02:21:20;13.50;99.90
45066;DHT22;30830;53.704;10.004;2022-07-06T02:23:46;13.40;99.90
45066;DHT22;30830;53.704;10.004;2022-07-06T02:26:11;13.40;99.90
45066;DHT22;30830;53.704;10.004;2022-07-06T02:28:37;13.40;99.90
45066;DHT22;30830;53.704;10.004;2022-07-06T02:31:02;13.30;99.90
45066;DHT22;30830;53.704;10.004;2022-07-06T02:33:28;13.20;99.90
45066;DHT22;30830;53.704;10.004;2022-07-06T02:35:54;13.20;99.90
45066;DHT22;30830;53.704;10.004;2022-07-06T02:38:19;13.20;99.90
45066;DHT22;30830;53.704;10.004;2022-07-06T02:40:45;13.10;99.90
45066;DHT22;30830;53.704;10.004;2022-07-06T02:43:10;13.10;99.90
45066;DHT22;30830;53.704;10.004;2022-07-06T02:45:36;13.10;99.90
45066;DHT22;30830;53.704;10.004;2022-07-06T02:48:02;13.00;99.90
45066;DHT22;30830;53.704;10.004;2022-07-06T02:50:27;13.00;99.90
45066;DHT22;30830;53.704;10.004;2022-07-06T02:52:53;13.00;99.90
45066;DHT22;30830;53.704;10.004;2022-07-06T02:55:20;13.00;99.90
45066;DHT22;30830;53.704;10.004;2022-07-06T02:57:46;13.00;99.90
45066;DHT22;30830;53.704;10.004;2022-07-06T03:00:12;13.00;99.90
45066;DHT22;30830;53.704;10.004;2022-07-06T03:02:38;13.00;99.90
45066;DHT22;30830;53.704;10.004;2022-07-06T03:05:04;13.00;99.90
45066;DHT22;30830;53.704;10.004;2022-07-06T03:07:30;13.00;99.90
45066;DHT22;30830;53.704;10.004;2022-07-06T03:09:55;13.00;99.90
45066;DHT22;30830;53.704;10.004;2022-07-06T03:12:21;13.00;99.90
45066;DHT22;30830;53.704;10.004;2022-07-06T03:14:46;13.00;99.90
45066;DHT22;30830;53.704;10.004;2022-07-06T03:17:12;13.00;99.90
45066;DHT22;30830;53.704;10.004;2022-07-06T03:19:38;13.00;99.90
45066;DHT22;30830;53.704;10.004;2022-07-06T03:22:04;13.00;99.90
45066;DHT22;30830;53.704;10.004;2022-07-06T03:24:29;13.00;99.90
45066;DHT22;30830;53.704;10.004;2022-07-06T03:26:55;13.00;99.90
45066;DHT22;30830;53.704;10.004;2022-07-06T03:29:21;13.00;99.90
45066;DHT22;30830;53.704;10.004;2022-07-06T03:31:46;13.00;99.90
45066;DHT22;30830;53.704;10.004;2022-07-06T03:34:12;13.00;99.90
45066;DHT22;30830;53.704;10.004;2022-07-06T03:36:38;13.00;99.90
45066;DHT22;30830;53.704;10.004;2022-07-06T03:39:04;13.00;99.90
45066;DHT22;30830;53.704;10.004;2022-07-06T03:41:30;13.00;99.90
45066;DHT22;30830;53.704;10.004;2022-07-06T03:43:55;13.00;99.90
45066;DHT22;30830;53.704;10.004;2022-07-06T03:46:21;13.00;99.90
45066;DHT22;30830;53.704;10.004;2022-07-06T03:48:47;13.00;99.90
45066;DHT22;30830;53.704;10.004;2022-07-06T03:51:13;13.00;99.90
45066;DHT22;30830;53.704;10.004;2022-07-06T03:53:39;13.00;99.90
45066;DHT22;30830;53.704;10.004;2022-07-06T03:56:04;13.00;99.90
45066;DHT22;30830;53.704;10.004;2022-07-06T03:58:48;13.00;99.90
45066;DHT22;30830;53.704;10.004;2022-07-06T04:01:14;13.00;99.90
45066;DHT22;30830;53.704;10.004;2022-07-06T04:03:40;13.10;99.90
45066;DHT22;30830;53.704;10.004;2022-07-06T04:06:06;13.10;99.90
45066;DHT22;30830;53.704;10.004;2022-07-06T04:08:31;13.10;99.90
45066;DHT22;30830;53.704;10.004;2022-07-06T04:10:57;13.10;99.90
45066;DHT22;30830;53.704;10.004;2022-07-06T04:13:22;13.20;99.90
45066;DHT22;30830;53.704;10.004;2022-07-06T04:15:50;13.10;99.90
45066;DHT22;30830;53.704;10.004;2022-07-06T04:18:16;13.20;99.90
45066;DHT22;30830;53.704;10.004;2022-07-06T04:20:42;13.10;99.90
45066;DHT22;30830;53.704;10.004;2022-07-06T04:23:07;13.10;99.90
45066;DHT22;30830;53.704;10.004;2022-07-06T04:25:34;13.20;99.90
45066;DHT22;30830;53.704;10.004;2022-07-06T04:27:59;13.20;99.90
45066;DHT22;30830;53.704;10.004;2022-07-06T04:30:25;13.20;99.90
45066;DHT22;30830;53.704;10.004;2022-07-06T04:32:51;13.20;99.90
45066;DHT22;30830;53.704;10.004;2022-07-06T04:35:16;13.20;99.90
45066;DHT22;30830;53.704;10.004;2022-07-06T04:37:42;13.30;99.90
45066;DHT22;30830;53.704;10.004;2022-07-06T04:40:08;13.30;99.90
45066;DHT22;30830;53.704;10.004;2022-07-06T04:42:33;13.40;99.90
45066;DHT22;30830;53.704;10.004;2022-07-06T04:44:59;13.40;99.90
45066;DHT22;30830;53.704;10.004;2022-07-06T04:47:25;13.40;99.90
45066;DHT22;30830;53.704;10.004;2022-07-06T04:49:50;13.40;99.90
45066;DHT22;30830;53.704;10.004;2022-07-06T04:52:16;13.40;99.90
45066;DHT22;30830;53.704;10.004;2022-07-06T04:54:41;13.40;99.90
45066;DHT22;30830;53.704;10.004;2022-07-06T04:57:07;13.40;99.90
45066;DHT22;30830;53.704;10.004;2022-07-06T04:59:33;13.40;99.90
45066;DHT22;30830;53.704;10.004;2022-07-06T05:01:58;13.40;99.90
45066;DHT22;30830;53.704;10.004;2022-07-06T05:04:24;13.40;99.90
45066;DHT22;30830;53.704;10.004;2022-07-06T05:06:50;13.40;99.90
45066;DHT22;30830;53.704;10.004;2022-07-06T05:09:15;13.40;99.90
45066;DHT22;30830;53.704;10.004;2022-07-06T05:11:41;13.40;99.90
45066;DHT22;30830;53.704;10.004;2022-07-06T05:14:06;13.40;99.90
45066;DHT22;30830;53.704;10.004;2022-07-06T05:16:32;13.30;99.90
45066;DHT22;30830;53.704;10.004;2022-07-06T05:18:58;13.30;99.90
45066;DHT22;30830;53.704;10.004;2022-07-06T05:21:24;13.30;99.90
45066;DHT22;30830;53.704;10.004;2022-07-06T05:23:49;13.30;99.90
45066;DHT22;30830;53.704;10.004;2022-07-06T05:26:15;13.40;99.90
45066;DHT22;30830;53.704;10.004;2022-07-06T05:28:41;13.40;99.90
45066;DHT22;30830;53.704;10.004;2022-07-06T05:31:06;13.40;99.90
45066;DHT22;30830;53.704;10.004;2022-07-06T05:33:32;13.50;99.90
45066;DHT22;30830;53.704;10.004;2022-07-06T05:35:58;13.50;99.90
45066;DHT22;30830;53.704;10.004;2022-07-06T05:38:24;13.60;99.90
45066;DHT22;30830;53.704;10.004;2022-07-06T05:40:49;13.60;99.90
45066;DHT22;30830;53.704;10.004;2022-07-06T05:43:15;13.60;99.90
45066;DHT22;30830;53.704;10.004;2022-07-06T05:45:41;13.60;99.90
45066;DHT22;30830;53.704;10.004;2022-07-06T05:48:06;13.70;99.90
45066;DHT22;30830;53.704;10.004;2022-07-06T05:50:51;13.70;99.90
45066;DHT22;30830;53.704;10.004;2022-07-06T05:53:16;13.80;99.90
45066;DHT22;30830;53.704;10.004;2022-07-06T05:55:42;13.80;99.90
45066;DHT22;30830;53.704;10.004;2022-07-06T05:58:08;13.80;99.90
45066;DHT22;30830;53.704;10.004;2022-07-06T06:00:33;13.90;99.90
45066;DHT22;30830;53.704;10.004;2022-07-06T06:02:59;13.90;99.90
45066;DHT22;30830;53.704;10.004;2022-07-06T06:05:25;13.90;99.90
45066;DHT22;30830;53.704;10.004;2022-07-06T06:07:51;13.90;99.90
45066;DHT22;30830;53.704;10.004;2022-07-06T06:10:18;13.90;99.90
45066;DHT22;30830;53.704;10.004;2022-07-06T06:12:44;13.90;99.90
45066;DHT22;30830;53.704;10.004;2022-07-06T06:15:11;14.00;99.90
45066;DHT22;30830;53.704;10.004;2022-07-06T06:17:38;14.00;99.90
45066;DHT22;30830;53.704;10.004;2022-07-06T06:20:05;14.10;99.90
45066;DHT22;30830;53.704;10.004;2022-07-06T06:22:48;14.10;99.90
45066;DHT22;30830;53.704;10.004;2022-07-06T06:25:16;14.20;99.90
45066;DHT22;30830;53.704;10.004;2022-07-06T06:27:42;14.20;99.90
45066;DHT22;30830;53.704;10.004;2022-07-06T06:30:08;14.30;99.90
45066;DHT22;30830;53.704;10.004;2022-07-06T06:32:34;14.30;99.90
45066;DHT22;30830;53.704;10.004;2022-07-06T06:35:00;14.30;99.90
45066;DHT22;30830;53.704;10.004;2022-07-06T06:37:25;14.30;99.90
45066;DHT22;30830;53.704;10.004;2022-07-06T06:39:51;14.40;99.90
45066;DHT22;30830;53.704;10.004;2022-07-06T06:42:16;14.40;99.90
45066;DHT22;30830;53.704;10.004;2022-07-06T06:44:42;14.50;99.90
45066;DHT22;30830;53.704;10.004;2022-07-06T06:47:07;14.50;99.90
45066;DHT22;30830;53.704;10.004;2022-07-06T06:49:33;14.70;99.90
45066;DHT22;30830;53.704;10.004;2022-07-06T06:51:58;14.80;99.90
45066;DHT22;30830;53.704;10.004;2022-07-06T06:54:24;14.90;99.90
45066;DHT22;30830;53.704;10.004;2022-07-06T06:56:50;15.00;99.90
45066;DHT22;30830;53.704;10.004;2022-07-06T06:59:15;15.00;99.90
45066;DHT22;30830;53.704;10.004;2022-07-06T07:01:41;15.10;99.90
45066;DHT22;30830;53.704;10.004;2022-07-06T07:04:07;15.10;99.90
45066;DHT22;30830;53.704;10.004;2022-07-06T07:06:33;15.00;99.90
45066;DHT22;30830;53.704;10.004;2022-07-06T07:08:58;15.00;99.90
45066;DHT22;30830;53.704;10.004;2022-07-06T07:11:24;15.00;99.90
45066;DHT22;30830;53.704;10.004;2022-07-06T07:13:50;15.10;99.90
45066;DHT22;30830;53.704;10.004;2022-07-06T07:16:15;15.10;99.90
45066;DHT22;30830;53.704;10.004;2022-07-06T07:18:41;15.20;99.90
45066;DHT22;30830;53.704;10.004;2022-07-06T07:21:06;15.20;99.90
45066;DHT22;30830;53.704;10.004;2022-07-06T07:23:32;15.20;99.90
45066;DHT22;30830;53.704;10.004;2022-07-06T07:25:57;15.10;99.90
45066;DHT22;30830;53.704;10.004;2022-07-06T07:28:23;15.10;99.90
45066;DHT22;30830;53.704;10.004;2022-07-06T07:30:49;15.00;99.90
45066;DHT22;30830;53.704;10.004;2022-07-06T07:33:15;15.10;99.90
45066;DHT22;30830;53.704;10.004;2022-07-06T07:35:41;15.10;99.90
45066;DHT22;30830;53.704;10.004;2022-07-06T07:38:06;15.20;99.90
45066;DHT22;30830;53.704;10.004;2022-07-06T07:40:32;15.20;99.90
45066;DHT22;30830;53.704;10.004;2022-07-06T07:42:58;15.30;99.90
45066;DHT22;30830;53.704;10.004;2022-07-06T07:45:24;15.30;99.90
45066;DHT22;30830;53.704;10.004;2022-07-06T07:47:50;15.30;99.90
45066;DHT22;30830;53.704;10.004;2022-07-06T07:50:15;15.30;99.90
45066;DHT22;30830;53.704;10.004;2022-07-06T07:52:41;15.30;99.90
45066;DHT22;30830;53.704;10.004;2022-07-06T07:55:07;15.30;99.90
45066;DHT22;30830;53.704;10.004;2022-07-06T07:57:33;15.40;99.90
45066;DHT22;30830;53.704;10.004;2022-07-06T07:59:58;15.40;99.90
45066;DHT22;30830;53.704;10.004;2022-07-06T08:02:24;15.40;99.90
45066;DHT22;30830;53.704;10.004;2022-07-06T08:04:49;15.60;99.90
45066;DHT22;30830;53.704;10.004;2022-07-06T08:07:15;15.70;99.90
45066;DHT22;30830;53.704;10.004;2022-07-06T08:09:40;15.80;99.90
45066;DHT22;30830;53.704;10.004;2022-07-06T08:12:06;16.00;99.90
45066;DHT22;30830;53.704;10.004;2022-07-06T08:14:32;16.00;99.90
45066;DHT22;30830;53.704;10.004;2022-07-06T08:16:58;16.10;99.90
45066;DHT22;30830;53.704;10.004;2022-07-06T08:19:23;16.10;99.90
45066;DHT22;30830;53.704;10.004;2022-07-06T08:21:49;16.20;99.90
45066;DHT22;30830;53.704;10.004;2022-07-06T08:24:14;16.20;99.90
45066;DHT22;30830;53.704;10.004;2022-07-06T08:26:40;16.30;99.90
45066;DHT22;30830;53.704;10.004;2022-07-06T08:29:06;16.30;99.90
45066;DHT22;30830;53.704;10.004;2022-07-06T08:31:32;16.40;99.90
45066;DHT22;30830;53.704;10.004;2022-07-06T08:34:00;16.50;99.90
45066;DHT22;30830;53.704;10.004;2022-07-06T08:36:26;16.50;99.90
45066;DHT22;30830;53.704;10.004;2022-07-06T08:38:51;16.50;99.90
45066;DHT22;30830;53.704;10.004;2022-07-06T08:41:18;16.40;99.90
45066;DHT22;30830;53.704;10.004;2022-07-06T08:43:46;16.20;99.90
45066;DHT22;30830;53.704;10.004;2022-07-06T08:46:13;16.00;99.90
45066;DHT22;30830;53.704;10.004;2022-07-06T08:48:40;15.50;99.90
45066;DHT22;30830;53.704;10.004;2022-07-06T08:51:06;15.40;99.90
45066;DHT22;30830;53.704;10.004;2022-07-06T08:53:33;15.20;99.90
45066;DHT22;30830;53.704;10.004;2022-07-06T08:55:59;15.10;99.90
45066;DHT22;30830;53.704;10.004;2022-07-06T08:58:25;15.10;99.90
45066;DHT22;30830;53.704;10.004;2022-07-06T09:00:56;15.00;99.90
45066;DHT22;30830;53.704;10.004;2022-07-06T09:03:23;15.00;99.90
45066;DHT22;30830;53.704;10.004;2022-07-06T09:05:50;15.00;99.90
45066;DHT22;30830;53.704;10.004;2022-07-06T09:08:18;15.10;99.90
45066;DHT22;30830;53.704;10.004;2022-07-06T09:10:44;15.10;99.90
45066;DHT22;30830;53.704;10.004;2022-07-06T09:13:10;15.30;99.90
45066;DHT22;30830;53.704;10.004;2022-07-06T09:15:37;15.50;99.90
45066;DHT22;30830;53.704;10.004;2022-07-06T09:18:06;15.60;99.90
45066;DHT22;30830;53.704;10.004;2022-07-06T09:20:33;15.70;99.90
45066;DHT22;30830;53.704;10.004;2022-07-06T09:23:00;15.90;99.90
45066;DHT22;30830;53.704;10.004;2022-07-06T09:25:27;16.10;99.90
45066;DHT22;30830;53.704;10.004;2022-07-06T09:27:53;16.30;99.90
45066;DHT22;30830;53.704;10.004;2022-07-06T09:30:21;16.50;99.90
45066;DHT22;30830;53.704;10.004;2022-07-06T09:32:50;16.60;99.90
45066;DHT22;30830;53.704;10.004;2022-07-06T09:35:20;16.80;99.90
45066;DHT22;30830;53.704;10.004;2022-07-06T09:37:46;16.90;99.90
45066;DHT22;30830;53.704;10.004;2022-07-06T09:40:19;17.10;99.90
45066;DHT22;30830;53.704;10.004;2022-07-06T09:42:45;17.20;99.90
45066;DHT22;30830;53.704;10.004;2022-07-06T09:45:11;17.30;99.90
45066;DHT22;30830;53.704;10.004;2022-07-06T09:47:37;17.40;99.90
45066;DHT22;30830;53.704;10.004;2022-07-06T09:50:05;17.40;99.90
45066;DHT22;30830;53.704;10.004;2022-07-06T09:52:34;17.20;99.90
45066;DHT22;30830;53.704;10.004;2022-07-06T09:54:59;16.90;99.90
45066;DHT22;30830;53.704;10.004;2022-07-06T09:57:25;16.80;99.90
45066;DHT22;30830;53.704;10.004;2022-07-06T09:59:51;16.60;99.90
45066;DHT22;30830;53.704;10.004;2022-07-06T10:02:19;16.40;99.90
45066;DHT22;30830;53.704;10.004;2022-07-06T10:04:45;16.30;99.90
45066;DHT22;30830;53.704;10.004;2022-07-06T10:07:12;16.30;99.90
45066;DHT22;30830;53.704;10.004;2022-07-06T10:09:38;16.40;99.90
45066;DHT22;30830;53.704;10.004;2022-07-06T10:12:05;16.30;99.90
45066;DHT22;30830;53.704;10.004;2022-07-06T10:14:34;16.10;99.90
45066;DHT22;30830;53.704;10.004;2022-07-06T10:17:01;16.10;99.90
45066;DHT22;30830;53.704;10.004;2022-07-06T10:19:29;15.90;99.90
45066;DHT22;30830;53.704;10.004;2022-07-06T10:21:57;15.90;99.90
45066;DHT22;30830;53.704;10.004;2022-07-06T10:24:24;15.90;99.90
45066;DHT22;30830;53.704;10.004;2022-07-06T10:26:50;16.00;99.90
45066;DHT22;30830;53.704;10.004;2022-07-06T10:29:16;16.10;99.90
45066;DHT22;30830;53.704;10.004;2022-07-06T10:31:45;16.10;99.90
45066;DHT22;30830;53.704;10.004;2022-07-06T10:34:13;16.10;99.90
45066;DHT22;30830;53.704;10.004;2022-07-06T10:36:41;16.10;99.90
45066;DHT22;30830;53.704;10.004;2022-07-06T10:39:08;16.30;99.90
45066;DHT22;30830;53.704;10.004;2022-07-06T10:41:52;16.40;99.90
45066;DHT22;30830;53.704;10.004;2022-07-06T10:44:23;16.50;99.90
45066;DHT22;30830;53.704;10.004;2022-07-06T10:46:53;16.70;99.90
45066;DHT22;30830;53.704;10.004;2022-07-06T10:49:20;16.80;99.90
45066;DHT22;30830;53.704;10.004;2022-07-06T10:51:47;16.90;99.90
45066;DHT22;30830;53.704;10.004;2022-07-06T10:54:12;17.00;99.90
45066;DHT22;30830;53.704;10.004;2022-07-06T10:56:39;17.10;99.90
45066;DHT22;30830;53.704;10.004;2022-07-06T10:59:14;17.20;99.90
45066;DHT22;30830;53.704;10.004;2022-07-06T11:01:42;17.30;99.90
45066;DHT22;30830;53.704;10.004;2022-07-06T11:04:31;17.40;99.90
45066;DHT22;30830;53.704;10.004;2022-07-06T11:07:10;17.50;99.90
45066;DHT22;30830;53.704;10.004;2022-07-06T11:09:36;17.60;99.90
45066;DHT22;30830;53.704;10.004;2022-07-06T11:12:14;17.90;99.90
45066;DHT22;30830;53.704;10.004;2022-07-06T11:14:41;18.00;99.90
45066;DHT22;30830;53.704;10.004;2022-07-06T11:17:09;18.30;99.90
45066;DHT22;30830;53.704;10.004;2022-07-06T11:19:35;18.40;99.90
45066;DHT22;30830;53.704;10.004;2022-07-06T11:22:08;18.50;99.90
45066;DHT22;30830;53.704;10.004;2022-07-06T11:24:39;18.60;99.90
45066;DHT22;30830;53.704;10.004;2022-07-06T11:27:05;18.70;99.90
45066;DHT22;30830;53.704;10.004;2022-07-06T11:29:35;18.60;99.90
45066;DHT22;30830;53.704;10.004;2022-07-06T11:32:04;18.70;99.90
45066;DHT22;30830;53.704;10.004;2022-07-06T11:34:33;18.70;99.90
45066;DHT22;30830;53.704;10.004;2022-07-06T11:37:02;18.60;99.90
45066;DHT22;30830;53.704;10.004;2022-07-06T11:39:31;18.60;99.90
45066;DHT22;30830;53.704;10.004;2022-07-06T11:41:58;18.50;99.90
45066;DHT22;30830;53.704;10.004;2022-07-06T11:44:24;18.40;99.90
45066;DHT22;30830;53.704;10.004;2022-07-06T11:46:50;18.30;99.90
45066;DHT22;30830;53.704;10.004;2022-07-06T11:49:16;18.30;99.90
45066;DHT22;30830;53.704;10.004;2022-07-06T11:51:42;18.20;99.90
45066;DHT22;30830;53.704;10.004;2022-07-06T11:54:20;18.10;99.90
45066;DHT22;30830;53.704;10.004;2022-07-06T11:56:54;18.10;99.90
45066;DHT22;30830;53.704;10.004;2022-07-06T11:59:22;18.10;99.90
45066;DHT22;30830;53.704;10.004;2022-07-06T12:01:48;18.10;99.90
45066;DHT22;30830;53.704;10.004;2022-07-06T12:04:14;18.00;99.90
45066;DHT22;30830;53.704;10.004;2022-07-06T12:06:43;18.10;99.90
45066;DHT22;30830;53.704;10.004;2022-07-06T12:09:09;18.20;99.90
45066;DHT22;30830;53.704;10.004;2022-07-06T12:11:36;18.30;99.90
45066;DHT22;30830;53.704;10.004;2022-07-06T12:14:19;18.40;99.90
45066;DHT22;30830;53.704;10.004;2022-07-06T12:16:46;18.50;99.90
45066;DHT22;30830;53.704;10.004;2022-07-06T12:19:13;18.60;99.90
45066;DHT22;30830;53.704;10.004;2022-07-06T12:21:47;18.90;99.90
45066;DHT22;30830;53.704;10.004;2022-07-06T12:24:29;19.20;99.90
45066;DHT22;30830;53.704;10.004;2022-07-06T12:27:09;19.40;99.90
45066;DHT22;30830;53.704;10.004;2022-07-06T12:29:35;19.60;99.90
45066;DHT22;30830;53.704;10.004;2022-07-06T12:32:01;19.60;99.90
45066;DHT22;30830;53.704;10.004;2022-07-06T12:34:28;19.70;99.90
45066;DHT22;30830;53.704;10.004;2022-07-06T12:37:05;19.70;99.90
45066;DHT22;30830;53.704;10.004;2022-07-06T12:39:31;19.70;99.90
45066;DHT22;30830;53.704;10.004;2022-07-06T12:42:02;19.70;99.90
45066;DHT22;30830;53.704;10.004;2022-07-06T12:44:28;19.60;99.70
45066;DHT22;30830;53.704;10.004;2022-07-06T12:47:05;19.70;99.90
45066;DHT22;30830;53.704;10.004;2022-07-06T12:49:32;19.80;99.90
45066;DHT22;30830;53.704;10.004;2022-07-06T12:54:28;20.10;99.20
45066;DHT22;30830;53.704;10.004;2022-07-06T12:57:09;20.00;98.90
45066;DHT22;30830;53.704;10.004;2022-07-06T12:59:41;19.80;98.50
45066;DHT22;30830;53.704;10.004;2022-07-06T13:02:09;19.60;99.10
45066;DHT22;30830;53.704;10.004;2022-07-06T13:04:36;19.80;99.90
45066;DHT22;30830;53.704;10.004;2022-07-06T13:07:03;19.80;99.20
45066;DHT22;30830;53.704;10.004;2022-07-06T13:09:29;19.80;98.60
45066;DHT22;30830;53.704;10.004;2022-07-06T13:11:56;19.90;99.90
45066;DHT22;30830;53.704;10.004;2022-07-06T13:14:22;20.10;99.70
45066;DHT22;30830;53.704;10.004;2022-07-06T13:16:47;20.10;98.10
45066;DHT22;30830;53.704;10.004;2022-07-06T13:19:13;20.20;99.20
45066;DHT22;30830;53.704;10.004;2022-07-06T13:21:39;20.30;98.30
45066;DHT22;30830;53.704;10.004;2022-07-06T13:24:06;20.40;98.20
45066;DHT22;30830;53.704;10.004;2022-07-06T13:26:32;20.50;98.00
45066;DHT22;30830;53.704;10.004;2022-07-06T13:29:03;20.60;97.80
45066;DHT22;30830;53.704;10.004;2022-07-06T13:31:29;20.60;96.80
45066;DHT22;30830;53.704;10.004;2022-07-06T13:33:55;20.40;96.60
45066;DHT22;30830;53.704;10.004;2022-07-06T13:36:21;20.40;96.60
45066;DHT22;30830;53.704;10.004;2022-07-06T13:38:47;20.50;95.60
45066;DHT22;30830;53.704;10.004;2022-07-06T13:41:13;20.40;95.10
45066;DHT22;30830;53.704;10.004;2022-07-06T13:43:38;20.60;96.00
45066;DHT22;30830;53.704;10.004;2022-07-06T13:46:05;20.50;95.10
45066;DHT22;30830;53.704;10.004;2022-07-06T13:48:32;20.50;96.50
45066;DHT22;30830;53.704;10.004;2022-07-06T13:50:59;20.70;95.20
45066;DHT22;30830;53.704;10.004;2022-07-06T13:53:24;20.70;94.80
45066;DHT22;30830;53.704;10.004;2022-07-06T13:55:50;20.70;95.90
45066;DHT22;30830;53.704;10.004;2022-07-06T13:58:15;20.90;98.30
45066;DHT22;30830;53.704;10.004;2022-07-06T14:00:41;21.00;94.40
45066;DHT22;30830;53.704;10.004;2022-07-06T14:03:07;21.00;94.60
45066;DHT22;30830;53.704;10.004;2022-07-06T14:05:33;21.00;94.20
45066;DHT22;30830;53.704;10.004;2022-07-06T14:08:00;21.00;94.30
45066;DHT22;30830;53.704;10.004;2022-07-06T14:10:26;21.10;93.20
45066;DHT22;30830;53.704;10.004;2022-07-06T14:12:51;21.00;93.60
45066;DHT22;30830;53.704;10.004;2022-07-06T14:15:17;21.00;93.70
45066;DHT22;30830;53.704;10.004;2022-07-06T14:17:43;21.00;93.90
45066;DHT22;30830;53.704;10.004;2022-07-06T14:20:09;21.00;93.80
45066;DHT22;30830;53.704;10.004;2022-07-06T14:22:35;20.90;93.70
45066;DHT22;30830;53.704;10.004;2022-07-06T14:25:00;20.70;94.30
45066;DHT22;30830;53.704;10.004;2022-07-06T14:27:26;20.70;94.30
45066;DHT22;30830;53.704;10.004;2022-07-06T14:29:52;20.60;94.30
45066;DHT22;30830;53.704;10.004;2022-07-06T14:32:17;20.70;94.70
45066;DHT22;30830;53.704;10.004;2022-07-06T14:34:43;20.70;94.40
45066;DHT22;30830;53.704;10.004;2022-07-06T14:37:08;20.70;94.10
45066;DHT22;30830;53.704;10.004;2022-07-06T14:39:34;20.70;94.30
45066;DHT22;30830;53.704;10.004;2022-07-06T14:42:00;20.50;94.10
45066;DHT22;30830;53.704;10.004;2022-07-06T14:44:25;20.40;95.10
45066;DHT22;30830;53.704;10.004;2022-07-06T14:46:52;20.20;95.20
45066;DHT22;30830;53.704;10.004;2022-07-06T14:49:18;20.10;95.60
45066;DHT22;30830;53.704;10.004;2022-07-06T14:51:44;20.10;95.10
45066;DHT22;30830;53.704;10.004;2022-07-06T14:54:09;20.00;96.60
45066;DHT22;30830;53.704;10.004;2022-07-06T14:56:36;20.00;96.20
45066;DHT22;30830;53.704;10.004;2022-07-06T14:59:02;20.00;96.20
45066;DHT22;30830;53.704;10.004;2022-07-06T15:01:28;20.00;95.10
45066;DHT22;30830;53.704;10.004;2022-07-06T15:03:53;20.10;95.00
45066;DHT22;30830;53.704;10.004;2022-07-06T15:06:19;20.00;94.60
45066;DHT22;30830;53.704;10.004;2022-07-06T15:08:44;19.90;93.90
45066;DHT22;30830;53.704;10.004;2022-07-06T15:11:12;19.90;95.00
45066;DHT22;30830;53.704;10.004;2022-07-06T15:13:38;19.80;94.60
45066;DHT22;30830;53.704;10.004;2022-07-06T15:16:04;19.80;94.60